• Join FlightAware (Why Join?)
  • Login
  • US Flag 
06:39AM EDT


 

Airport Tracker/Info


-or-


 

Live Flight TrackerFlight Track Log ✈ TAM3724 ✈ 22-May-2013 ✈ SBSP / CGH - SBBR / BSB

Flight Track Log - Related Links

Times and Time Zones

All times are in EDT time to prevent confusion due to time zone crossing. See the TAM3724 flight status page for this flight to view local times or setup timezone preferences in your user account.

Time Position Orientation Groundspeed Altitude Reporting Facility
EDT Latitude Longitude Course Direction KTS MPH feet Rate Location/Type
06:58PM -23.6440 -46.6440 144° Southeast 164 189 3,500  Level FlightAware
06:59PM -23.6480 -46.6370 122° Southeast 173 199 3,700 960 Climbing FlightAware
06:59PM -23.6490 -46.6240 95° East 198 228 3,900 1,380 Climbing FlightAware
06:59PM -23.6400 -46.6100 55° Northeast 213 245 4,400 2,100 Climbing FlightAware
06:59PM -23.6200 -46.5960 33° Northeast 217 250 5,300 2,100 Climbing FlightAware
07:00PM -23.6090 -46.5830 47° Northeast 223 257 5,800 1,800 Climbing FlightAware
07:00PM -23.6040 -46.5680 70° East 232 267 6,200 1,320 Climbing FlightAware
07:00PM -23.5980 -46.5290 80° East 279 321 6,800 1,500 Climbing FlightAware
07:01PM -23.5910 -46.4910 79° East 297 342 7,600 1,800 Climbing FlightAware
07:01PM -23.5820 -46.4470 77° East 302 348 8,500 2,160 Climbing FlightAware
07:02PM -23.5720 -46.4030 76° East 315 362 9,800 2,820 Climbing FlightAware
07:03PM -23.5570 -46.3400 75° East 321 369 11,800 2,880 Climbing FlightAware
07:03PM -23.5440 -46.2770 77° East 331 381 13,700 2,460 Climbing FlightAware
07:04PM -23.5190 -46.2090 68° East 340 391 15,300 2,280 Climbing FlightAware
07:04PM -23.5070 -46.1990 37° Northeast 333 383 15,800 2,880 Climbing FlightAware
07:04PM -23.4850 -46.1920 16° North 323 372 16,500 2,220 Climbing FlightAware
07:05PM -23.4580 -46.1950 354° North 319 367 17,300 2,520 Climbing FlightAware
07:05PM -23.4300 -46.2130 329° Northwest 311 358 18,200 1,800 Climbing FlightAware
07:06PM -23.3660 -46.2380 340° North 346 398 19,100 1,620 Climbing FlightAware
07:07PM -23.2920 -46.2590 345° North 357 411 20,700 1,920 Climbing FlightAware
07:07PM -23.2260 -46.2730 349° North 366 421 21,900 1,800 Climbing FlightAware
07:08PM -23.1660 -46.2860 349° North 363 418 23,100 1,680 Climbing FlightAware
07:09PM -23.0890 -46.3040 348° North 365 420 24,300 1,680 Climbing FlightAware
07:09PM -23.0190 -46.3200 348° North 375 432 25,500 1,620 Climbing FlightAware
07:10PM -22.9520 -46.3350 348° North 375 432 26,500 1,320 Climbing FlightAware
07:11PM -22.8740 -46.3530 348° North 376 433 27,400 1,260 Climbing FlightAware
07:13PM -22.6991 -46.3937 348° North  Level Estimated
07:13PM -22.6040 -46.4140 348° North 414 476 30,600  Level FlightAware
07:14PM -22.4730 -46.4430 348° North 409 471 32,000 840 Climbing FlightAware
07:16PM -22.3250 -46.4770 348° North 443 510 32,700 720 Climbing FlightAware
07:17PM -22.1950 -46.5060 348° North 445 512 33,800 960 Climbing FlightAware
07:18PM -22.0430 -46.5400 348° North 444 511 35,000 1,020 Climbing FlightAware
07:19PM -21.8720 -46.5790 348° North 427 491 36,600 780 Climbing FlightAware
07:20PM -21.7460 -46.6120 346° North 421 484 37,000 120 Climbing FlightAware
07:22PM -21.6070 -46.6860 334° Northwest 414 476 37,000  Level FlightAware
07:23PM -21.4860 -46.7490 334° Northwest 415 478 37,000  Level FlightAware
07:24PM -21.3940 -46.7980 334° Northwest 413 475 37,000  Level FlightAware
07:24PM -21.3260 -46.8340 334° Northwest 415 478 37,000  Level FlightAware
07:25PM -21.2560 -46.8700 334° Northwest 415 478 37,000  Level FlightAware
07:26PM -21.1790 -46.9110 334° Northwest 416 479 37,000  Level FlightAware
07:27PM -21.1070 -46.9480 334° Northwest 419 482 37,000  Level FlightAware
07:27PM -21.0280 -46.9900 334° Northwest 419 482 37,000  Level FlightAware
07:28PM -20.9600 -47.0250 334° Northwest 419 482 37,000  Level FlightAware
07:29PM -20.8910 -47.0610 334° Northwest 419 482 37,000  Level FlightAware
07:29PM -20.8090 -47.1040 334° Northwest 419 482 37,000  Level FlightAware
07:30PM -20.7380 -47.1410 334° Northwest 421 484 37,000  Level FlightAware
07:31PM -20.6640 -47.1800 334° Northwest 423 487 37,000  Level FlightAware
07:31PM -20.5930 -47.2160 335° Northwest 423 487 37,000  Level FlightAware
07:32PM -20.5130 -47.2580 334° Northwest 423 487 37,000  Level FlightAware
07:33PM -20.4420 -47.2950 334° Northwest 420 483 37,000  Level FlightAware
07:34PM -20.3710 -47.3320 334° Northwest 419 482 37,000  Level FlightAware
07:34PM -20.2950 -47.3710 334° Northwest 417 480 37,000  Level FlightAware
07:35PM -20.2240 -47.4080 334° Northwest 415 478 37,000  Level FlightAware
07:36PM -20.1450 -47.4490 334° Northwest 415 478 37,000  Level FlightAware
07:36PM -20.0780 -47.4830 335° Northwest 414 476 37,000  Level FlightAware
07:37PM -20.0060 -47.5200 334° Northwest 413 475 37,000  Level FlightAware
07:38PM -19.9290 -47.5590 335° Northwest 414 476 37,000  Level FlightAware
07:38PM -19.8630 -47.5940 333° Northwest 415 478 37,000  Level FlightAware
07:39PM -19.7840 -47.6340 335° Northwest 416 479 37,000  Level FlightAware
07:40PM -19.7110 -47.6720 334° Northwest 417 480 37,000  Level FlightAware
07:41PM -19.6410 -47.7080 334° Northwest 417 480 37,000  Level FlightAware
07:41PM -19.5650 -47.7460 335° Northwest 417 480 37,000  Level FlightAware
07:42PM -19.4950 -47.7820 334° Northwest 419 482 37,000  Level FlightAware
07:43PM -19.4180 -47.8220 334° Northwest 419 482 37,000  Level FlightAware
07:43PM -19.3430 -47.8600 334° Northwest 419 482 37,000  Level FlightAware
07:44PM -19.2660 -47.8990 334° Northwest 419 482 37,000  Level FlightAware
07:45PM -19.1960 -47.9350 334° Northwest 419 482 37,000  Level FlightAware
07:45PM -19.1290 -47.9690 334° Northwest 419 482 37,000  Level FlightAware
07:46PM -19.0470 -48.0100 335° Northwest 421 484 37,000  Level FlightAware
07:47PM -18.9760 -48.0470 334° Northwest 423 487 37,000  Level FlightAware
07:48PM -18.9050 -48.0820 335° Northwest 423 487 37,000  Level FlightAware
07:48PM -18.8270 -48.1220 334° Northwest 423 487 37,000  Level FlightAware
07:49PM -18.7570 -48.1580 334° Northwest 422 486 37,000  Level FlightAware
07:50PM -18.6760 -48.1990 334° Northwest 422 486 37,000  Level FlightAware
07:50PM -18.6070 -48.2330 335° Northwest 423 487 37,000  Level FlightAware
07:51PM -18.5290 -48.2730 334° Northwest 424 488 37,000  Level FlightAware
07:52PM -18.4520 -48.3120 334° Northwest 424 488 37,000  Level FlightAware
07:52PM -18.3830 -48.3460 335° Northwest 426 490 37,000  Level FlightAware
07:53PM -18.3060 -48.3850 334° Northwest 427 491 37,000  Level FlightAware
07:54PM -18.2360 -48.4200 335° Northwest 427 491 37,000  Level FlightAware
07:55PM -18.1520 -48.4630 334° Northwest 428 493 37,000  Level FlightAware
07:55PM -18.0810 -48.4980 335° Northwest 427 491 37,000  Level FlightAware
07:56PM -18.0110 -48.5340 334° Northwest 428 493 37,000  Level FlightAware
07:57PM -17.9410 -48.5520 346° North 448 516 37,000  Level FlightAware
07:57PM -17.8860 -48.5460 North 455 524 37,000  Level FlightAware
07:58PM -17.8020 -48.5350 North 451 519 37,000  Level FlightAware
07:58PM -17.7130 -48.5240 North 449 517 37,000  Level FlightAware
07:59PM -17.6300 -48.5130 North 447 514 37,000  Level FlightAware
08:00PM -17.5470 -48.5030 North 448 516 37,000 -840 Level FlightAware
08:00PM -17.4700 -48.4930 North 450 518 35,900 -1,380 Descending FlightAware
08:01PM -17.3790 -48.4810 North 446 513 35,100 -600 Descending FlightAware
08:02PM -17.3100 -48.4720 North 446 513 35,100  Level FlightAware
08:02PM -17.2400 -48.4630 North 446 513 35,100 -3,600 Level FlightAware
08:03PM -17.0890 -48.4460 North 452 520 29,100 -3,600 Descending FlightAware
08:04PM -17.0180 -48.4380 North 452 520 29,100  Level FlightAware
08:05PM -16.9480 -48.4300 North 452 520 29,100  Level FlightAware
08:05PM -16.8770 -48.4220 North 452 520 29,100 -5,340 Level FlightAware
08:06PM -16.8150 -48.4350 349° North 405 466 23,800 -6,780 Descending FlightAware
08:07PM -16.7290 -48.4440 354° North 393 452 21,800 -2,700 Descending FlightAware
08:07PM -16.6630 -48.4540 352° North 384 442 20,000 -3,000 Descending FlightAware
08:08PM -16.6010 -48.4670 349° North 398 458 18,100 -2,880 Descending FlightAware
08:09PM -16.5080 -48.4860 349° North 391 450 16,000 -2,760 Descending FlightAware
08:09PM -16.4390 -48.5000 349° North 375 432 14,000 -2,520 Descending FlightAware
08:10PM -16.3750 -48.5140 348° North 344 396 12,700 -1,860 Descending FlightAware
08:11PM -16.3240 -48.5240 349° North 325 374 11,700 -1,680 Descending FlightAware
08:11PM -16.2570 -48.5370 349° North 294 338 10,400 -1,200 Descending FlightAware
08:12PM -16.2110 -48.4980 39° Northeast 270 311 9,800 -540 Descending FlightAware
08:13PM -16.1950 -48.4710 58° Northeast 270 311 9,800 -840 Level FlightAware
08:13PM -16.1790 -48.4470 55° Northeast 254 292 9,100 -720 Descending FlightAware
08:14PM -16.1570 -48.4130 56° Northeast 254 292 9,100 -120 Level FlightAware
08:14PM -16.1390 -48.3830 58° Northeast 253 291 9,000 -120 Descending FlightAware
08:14PM -16.1210 -48.3540 57° Northeast 252 290 9,000  Level FlightAware
08:15PM -16.1010 -48.3320 47° Northeast 249 287 9,000  Level FlightAware
08:15PM -16.0670 -48.3310 North 238 274 9,000 -240 Level FlightAware
08:16PM -16.0320 -48.3380 349° North 239 275 8,800 -660 Descending FlightAware
08:16PM -16.0090 -48.3430 348° North 238 274 8,400 -900 Descending FlightAware
08:17PM -15.9760 -48.3500 348° North 234 269 8,000 -420 Descending FlightAware
08:17PM -15.9420 -48.3560 350° North 237 273 8,000  Level FlightAware
08:18PM -15.9160 -48.3610 350° North 236 272 8,000  Level FlightAware
08:18PM -15.8990 -48.3640 350° North 236 272 8,000 -720 Level FlightAware
08:18PM -15.8720 -48.3600 North 234 269 7,500 -960 Descending FlightAware
08:19PM -15.8600 -48.3420 55° Northeast 231 266 7,300 -900 Descending FlightAware
08:19PM -15.8640 -48.3150 99° East 228 262 6,900 -660 Descending FlightAware
08:20PM -15.8740 -48.2860 110° East 230 265 6,700 -600 Descending FlightAware
08:20PM -15.8820 -48.2580 107° East 232 267 6,400 -540 Descending FlightAware
08:20PM -15.8830 -48.2380 93° East 232 267 6,300 -540 Descending FlightAware
08:21PM -15.8810 -48.1930 87° East 234 269 5,900 -420 Descending FlightAware
08:22PM -15.8780 -48.1540 85° East 196 226 5,800 -300 Descending FlightAware
08:22PM -15.8760 -48.1290 85° East 177 204 5,600 -420 Descending FlightAware
08:23PM -15.8750 -48.1040 88° East 174 200 5,400 -360 Descending FlightAware
08:23PM -15.8730 -48.0860 83° East 173 199 5,300 -120 Descending FlightAware
08:24PM -15.8720 -48.0540 88° East 173 199 5,300  Level FlightAware
08:24PM -15.8700 -48.0230 86° East 174 200 5,300 -780 Level FlightAware
08:26PM -15.8630 -47.9210 86° East 173 199 3,300 -960 Descending FlightAware